createdAt,value
2022-08-22T00:02:11.021Z,100155.96
2022-08-22T00:02:43.871Z,100124.25
2022-08-22T00:03:01.919Z,100129.64
2022-08-22T00:03:04.340Z,100136.21
2022-08-22T00:03:06.742Z,100146.77
2022-08-22T00:03:08.940Z,100157.11
2022-08-22T00:05:11.145Z,100156.27
2022-08-22T00:08:03.753Z,100161.45
2022-08-22T00:10:50.124Z,100153.77
2022-08-22T00:14:01.289Z,100147.57
2022-08-22T00:16:51.217Z,100157.86
2022-08-22T00:19:49.239Z,100159.10
2022-08-22T00:22:26.220Z,100164.45
2022-08-22T00:25:25.700Z,100168.00
2022-08-22T00:28:03.212Z,100163.73
2022-08-22T00:30:38.644Z,100164.52
2022-08-22T00:33:23.107Z,100162.78
2022-08-22T00:36:02.892Z,100163.05
2022-08-22T00:38:38.691Z,100163.92
2022-08-22T00:41:24.635Z,100161.10
2022-08-22T00:44:08.460Z,100157.66
2022-08-22T00:46:39.261Z,100164.44
2022-08-22T00:49:32.239Z,100160.40
2022-08-22T00:52:27.665Z,100166.13
2022-08-22T00:55:04.770Z,100163.48
2022-08-22T00:58:04.039Z,100165.02
2022-08-22T01:00:39.598Z,100164.75
2022-08-22T01:03:29.107Z,100148.17
2022-08-22T01:06:22.594Z,100165.59
2022-08-22T01:09:02.883Z,100171.46
2022-08-22T01:11:52.693Z,100170.92
2022-08-22T01:14:36.933Z,100170.59
2022-08-22T01:17:44.416Z,100173.45
2022-08-22T01:20:30.387Z,100171.60
2022-08-22T01:23:40.618Z,100171.84
2022-08-22T01:26:30.755Z,100163.63
2022-08-22T01:29:35.936Z,100173.17
2022-08-22T01:32:24.776Z,100175.61
2022-08-22T01:35:11.568Z,100179.81
2022-08-22T01:37:47.823Z,100179.78
2022-08-22T01:40:54.620Z,100179.11
2022-08-22T01:44:00.656Z,100177.78
2022-08-22T01:46:34.990Z,100181.04
2022-08-22T01:49:20.807Z,100182.43
2022-08-22T01:52:09.747Z,100178.99
2022-08-22T01:54:43.851Z,100177.13
2022-08-22T01:57:13.209Z,100176.70
2022-08-22T01:59:44.586Z,100175.60
2022-08-22T02:02:32.378Z,100172.35
2022-08-22T02:05:05.605Z,100173.13
2022-08-22T02:08:13.167Z,100175.38
2022-08-22T02:11:05.181Z,100173.19
2022-08-22T02:13:47.019Z,100166.23
2022-08-22T02:16:26.631Z,100176.08
2022-08-22T02:19:10.359Z,100174.91
2022-08-22T02:22:07.083Z,100155.27
2022-08-22T02:24:54.855Z,100179.76
2022-08-22T02:27:33.119Z,100181.64
2022-08-22T02:30:09.984Z,100176.60
2022-08-22T02:32:41.054Z,100176.98
2022-08-22T02:35:17.635Z,100159.90
2022-08-22T02:38:14.256Z,100172.73
2022-08-22T02:40:48.523Z,100178.66
2022-08-22T02:43:29.505Z,100178.38
2022-08-22T02:46:12.276Z,100181.39
2022-08-22T02:49:09.435Z,100184.23
2022-08-22T02:51:47.661Z,100189.80
2022-08-22T02:54:26.383Z,100189.18
2022-08-22T02:57:19.202Z,100189.38
2022-08-22T03:00:31.527Z,100135.05
2022-08-22T03:03:24.901Z,100187.11
2022-08-22T03:06:02.128Z,100187.16
2022-08-22T03:08:53.021Z,100185.64
2022-08-22T03:11:30.440Z,100186.11
2022-08-22T03:14:31.454Z,100191.81
2022-08-22T03:17:08.688Z,100193.79
2022-08-22T03:19:58.224Z,100193.55
2022-08-22T03:22:39.856Z,100193.61
2022-08-22T03:26:02.433Z,100191.53
2022-08-22T03:28:59.524Z,100192.33
2022-08-22T03:31:31.016Z,100194.95
2022-08-22T03:34:25.259Z,100188.81
2022-08-22T03:37:13.509Z,100192.42
2022-08-22T03:39:48.736Z,100193.72
2022-08-22T03:42:18.173Z,100196.67
2022-08-22T03:45:06.887Z,100194.36
2022-08-22T03:47:59.674Z,100197.90
2022-08-22T03:51:05.197Z,100201.00
2022-08-22T03:53:45.201Z,100202.04
2022-08-22T03:56:34.447Z,100202.29
2022-08-22T03:59:14.450Z,100201.09
2022-08-22T04:01:45.514Z,100202.58
2022-08-22T04:04:36.874Z,100201.73
2022-08-22T04:07:36.192Z,100203.73
2022-08-22T04:10:29.046Z,100208.98
2022-08-22T04:13:34.749Z,100214.74
2022-08-22T04:16:30.028Z,100217.52
2022-08-22T04:19:16.521Z,100217.48
2022-08-22T04:22:01.271Z,100219.95
2022-08-22T04:24:44.250Z,100225.48
2022-08-22T04:27:38.559Z,100231.22
2022-08-22T04:30:34.517Z,100230.26
2022-08-22T04:33:14.687Z,100235.48
2022-08-22T04:35:59.843Z,100236.20
2022-08-22T04:38:33.740Z,100238.00
2022-08-22T04:41:13.960Z,100236.74
2022-08-22T04:43:52.042Z,100237.73
2022-08-22T04:46:39.534Z,100240.15
2022-08-22T04:49:24.841Z,100241.95
2022-08-22T04:52:22.029Z,100242.23
2022-08-22T04:55:28.467Z,100242.05
2022-08-22T04:58:30.786Z,100245.92
2022-08-22T05:01:04.687Z,100243.02
2022-08-22T05:03:43.080Z,100246.85
2022-08-22T05:06:16.152Z,100246.06
2022-08-22T05:08:53.613Z,100252.35
2022-08-22T05:11:24.451Z,100253.34
2022-08-22T05:13:57.875Z,100258.45
2022-08-22T05:16:34.460Z,100258.66
2022-08-22T05:19:16.950Z,100259.84
2022-08-22T05:21:48.704Z,100265.70
2022-08-22T05:24:38.406Z,100269.75
2022-08-22T05:27:13.744Z,100272.27
2022-08-22T05:29:44.969Z,100270.50
2022-08-22T05:32:21.808Z,100273.55
2022-08-22T05:34:53.698Z,100271.58
2022-08-22T05:37:26.149Z,100256.42
2022-08-22T05:39:58.100Z,100270.90
2022-08-22T05:42:34.898Z,100270.61
2022-08-22T05:45:06.926Z,100267.52
2022-08-22T05:47:48.539Z,100261.64
2022-08-22T05:50:16.297Z,100265.98
2022-08-22T05:53:06.420Z,100262.50
2022-08-22T05:55:37.262Z,100264.34
2022-08-22T05:58:08.404Z,100264.24
2022-08-22T06:00:41.962Z,100266.75
2022-08-22T06:03:20.294Z,100268.07
2022-08-22T06:05:57.710Z,100253.13
2022-08-22T06:08:35.050Z,100269.31
2022-08-22T06:11:09.435Z,100268.80
2022-08-22T06:14:03.883Z,100266.84
2022-08-22T06:16:47.543Z,100263.90
2022-08-22T06:19:20.296Z,100262.68
2022-08-22T06:21:53.739Z,100264.33
2022-08-22T06:24:28.384Z,100263.98
2022-08-22T06:27:04.264Z,100262.23
2022-08-22T06:29:41.235Z,100263.20
2022-08-22T06:32:30.612Z,100264.15
2022-08-22T06:35:16.502Z,100257.20
2022-08-22T06:37:50.522Z,100269.30
2022-08-22T06:40:19.463Z,100272.27
2022-08-22T06:42:51.797Z,100276.79
2022-08-22T06:45:32.890Z,100280.19
2022-08-22T06:48:16.628Z,100268.06
2022-08-22T06:50:49.203Z,100275.48
2022-08-22T06:53:20.653Z,100276.25
2022-08-22T06:55:56.468Z,100279.73
2022-08-22T06:58:38.806Z,100277.90
2022-08-22T07:01:12.927Z,100280.66
2022-08-22T07:03:46.746Z,100285.45
2022-08-22T07:06:39.637Z,100272.30
2022-08-22T07:09:18.716Z,100288.24
2022-08-22T07:11:47.312Z,100289.67
2022-08-22T07:14:24.571Z,100289.20
2022-08-22T07:16:59.925Z,100286.11
2022-08-22T07:19:41.696Z,100286.55
2022-08-22T07:22:26.503Z,100284.88
2022-08-22T07:25:02.993Z,100272.54
2022-08-22T07:28:06.975Z,100287.70
2022-08-22T07:30:46.759Z,100289.68
2022-08-22T07:33:33.824Z,100289.08
2022-08-22T07:36:23.104Z,100291.20
2022-08-22T07:39:14.197Z,100295.52
2022-08-22T07:42:30.280Z,100291.80
2022-08-22T07:45:12.131Z,100297.92
2022-08-22T07:47:56.148Z,100296.05
2022-08-22T07:50:30.388Z,100297.92
2022-08-22T07:53:18.901Z,100298.80
2022-08-22T07:55:50.487Z,100298.17
2022-08-22T07:58:21.918Z,100296.50
2022-08-22T08:00:51.135Z,100299.02
2022-08-22T08:03:22.107Z,100301.44
2022-08-22T08:05:50.541Z,100296.02
2022-08-22T08:08:41.322Z,100296.33
2022-08-22T08:11:13.411Z,100281.32
2022-08-22T08:13:49.850Z,100291.69
2022-08-22T08:16:20.462Z,100294.90
2022-08-22T08:18:51.209Z,100294.38
2022-08-22T08:21:32.516Z,100297.27
2022-08-22T08:24:02.394Z,100294.04
2022-08-22T08:26:35.973Z,100277.58
2022-08-22T08:29:08.406Z,100288.28
2022-08-22T08:31:44.838Z,100296.27
2022-08-22T08:34:22.486Z,100297.58
2022-08-22T08:37:17.435Z,100294.58
2022-08-22T08:39:50.958Z,100298.39
2022-08-22T08:43:05.297Z,100299.83
2022-08-22T08:45:59.311Z,100300.30
2022-08-22T08:49:01.790Z,100299.73
2022-08-22T08:51:58.744Z,100301.96
2022-08-22T08:54:44.760Z,100287.17
2022-08-22T08:57:34.270Z,100300.63
2022-08-22T09:00:23.591Z,100304.10
2022-08-22T09:03:21.172Z,100302.69
2022-08-22T09:06:23.050Z,100296.21
2022-08-22T09:09:11.015Z,100297.67
2022-08-22T09:12:11.502Z,100299.95
2022-08-22T09:15:14.182Z,100299.13
2022-08-22T09:18:09.529Z,100291.77
2022-08-22T09:21:02.678Z,100287.92
2022-08-22T09:24:14.112Z,100287.45
2022-08-22T09:27:02.145Z,100294.60
2022-08-22T09:29:54.481Z,100290.22
2022-08-22T09:32:57.883Z,100289.96
2022-08-22T09:36:01.077Z,100296.34
2022-08-22T09:38:38.331Z,100292.58
2022-08-22T09:41:24.380Z,100292.90
2022-08-22T09:44:16.490Z,100287.88
2022-08-22T09:47:09.829Z,100290.79
2022-08-22T09:50:13.865Z,100293.10
2022-08-22T09:52:54.047Z,100281.58
2022-08-22T09:55:39.001Z,100288.16
2022-08-22T09:58:27.777Z,100292.45
2022-08-22T10:01:10.894Z,100284.95
2022-08-22T10:04:19.451Z,100293.02
2022-08-22T10:07:01.787Z,100292.56
2022-08-22T10:09:57.261Z,100293.57
2022-08-22T10:12:36.147Z,100295.63
2022-08-22T10:15:23.436Z,100294.30
2022-08-22T10:18:24.386Z,100294.25
2022-08-22T10:21:14.544Z,100293.21
2022-08-22T10:23:57.971Z,100296.85
2022-08-22T10:26:43.625Z,100297.21
2022-08-22T10:29:43.024Z,100291.39
2022-08-22T10:32:39.300Z,100299.59
2022-08-22T10:35:26.772Z,100301.88
2022-08-22T10:38:12.390Z,100304.21
2022-08-22T10:41:02.620Z,100303.59
2022-08-22T10:43:45.975Z,100301.21
2022-08-22T10:46:20.011Z,100285.65
2022-08-22T10:49:07.815Z,100299.89
2022-08-22T10:51:58.453Z,100298.88
2022-08-22T10:55:18.480Z,100296.91
2022-08-22T10:58:11.726Z,100296.18
2022-08-22T11:00:50.343Z,100292.91
2022-08-22T11:03:38.262Z,100281.84
2022-08-22T11:06:21.903Z,100295.56
2022-08-22T11:09:15.505Z,100294.21
2022-08-22T11:12:09.291Z,100294.27
2022-08-22T11:15:10.650Z,100296.66
2022-08-22T11:18:04.019Z,100295.45
2022-08-22T11:20:48.575Z,100286.83
2022-08-22T11:23:38.005Z,100283.34
2022-08-22T11:26:23.052Z,100299.63
2022-08-22T11:29:26.551Z,100298.91
2022-08-22T11:32:09.782Z,100269.99
2022-08-22T11:34:50.092Z,100302.60
2022-08-22T11:37:42.938Z,100302.34
2022-08-22T11:40:24.485Z,100301.17
2022-08-22T11:43:03.208Z,100302.14
2022-08-22T11:45:43.218Z,100302.72
2022-08-22T11:48:29.469Z,100301.27
2022-08-22T11:51:16.018Z,100302.42
2022-08-22T11:53:53.270Z,100304.92
2022-08-22T11:56:27.289Z,100309.85
2022-08-22T11:59:08.006Z,100307.10
2022-08-22T12:02:01.765Z,100309.98
2022-08-22T12:04:44.111Z,100313.15
2022-08-22T12:07:34.846Z,100312.98
2022-08-22T12:10:29.040Z,100312.18
2022-08-22T12:13:20.080Z,100310.55
2022-08-22T12:16:18.160Z,100313.14
2022-08-22T12:19:06.299Z,100308.05
2022-08-22T12:21:50.249Z,100306.17
2022-08-22T12:24:24.889Z,100306.17
2022-08-22T12:27:28.960Z,100303.17
2022-08-22T12:30:14.993Z,100302.88
2022-08-22T12:33:05.865Z,100288.55
2022-08-22T12:36:00.397Z,100300.17
2022-08-22T12:39:01.908Z,100297.23
2022-08-22T12:41:37.491Z,100295.48
2022-08-22T12:44:35.776Z,100296.97
2022-08-22T12:47:25.223Z,100294.47
2022-08-22T12:50:31.457Z,100293.48
2022-08-22T12:53:22.163Z,100293.26
2022-08-22T12:56:18.823Z,100292.91
2022-08-22T12:59:02.337Z,100290.94
2022-08-22T13:01:43.175Z,100292.80
2022-08-22T13:04:33.248Z,100299.73
2022-08-22T13:07:29.202Z,100296.34
2022-08-22T13:10:22.559Z,100299.59
2022-08-22T13:12:53.215Z,100284.80
2022-08-22T13:15:21.158Z,100295.75
2022-08-22T13:17:54.937Z,100295.51
2022-08-22T13:20:31.588Z,100295.59
2022-08-22T13:23:07.421Z,100293.66
2022-08-22T13:26:32.016Z,100292.34
2022-08-22T13:29:26.755Z,100292.08
2022-08-22T13:32:02.157Z,100290.70
2022-08-22T13:34:51.942Z,100292.00
2022-08-22T13:37:25.909Z,100290.91
2022-08-22T13:40:01.768Z,100287.73
2022-08-22T13:42:33.816Z,100287.84
2022-08-22T13:45:15.983Z,100282.88
2022-08-22T13:47:59.077Z,100278.38
2022-08-22T13:50:37.069Z,100274.23
2022-08-22T13:53:32.665Z,100272.43
2022-08-22T13:56:17.486Z,100276.05
2022-08-22T13:58:51.658Z,100276.26
2022-08-22T14:01:43.289Z,100279.27
2022-08-22T14:04:21.869Z,100278.95
2022-08-22T14:07:39.297Z,100276.30
2022-08-22T14:10:14.794Z,100273.39
2022-08-22T14:12:50.138Z,100266.14
2022-08-22T14:15:24.705Z,100263.10
2022-08-22T14:18:09.227Z,100259.14
2022-08-22T14:20:40.868Z,100260.75
2022-08-22T14:23:27.107Z,100261.95
2022-08-22T14:25:57.280Z,100262.40
2022-08-22T14:28:33.133Z,100261.85
2022-08-22T14:31:08.661Z,100257.88
2022-08-22T14:33:45.435Z,100256.47
2022-08-22T14:36:22.039Z,100257.91
2022-08-22T14:39:10.256Z,100257.54
2022-08-22T14:41:56.044Z,100259.78
2022-08-22T14:44:37.771Z,100258.98
2022-08-22T14:47:32.644Z,100263.02
2022-08-22T14:50:11.201Z,100265.98
2022-08-22T14:52:46.425Z,100263.20
2022-08-22T14:55:22.118Z,100262.29
2022-08-22T14:57:58.114Z,100257.59
2022-08-22T15:00:48.069Z,100258.65
2022-08-22T15:03:33.059Z,100256.86
2022-08-22T15:06:26.601Z,100253.15
2022-08-22T15:08:55.001Z,100253.05
2022-08-22T15:11:31.865Z,100250.05
2022-08-22T15:14:13.756Z,100249.13
2022-08-22T15:16:58.258Z,100250.33
2022-08-22T15:19:46.023Z,100250.58
2022-08-22T15:22:25.681Z,100249.80
2022-08-22T15:25:12.250Z,100251.45
2022-08-22T15:27:49.729Z,100250.00
2022-08-22T15:30:21.005Z,100249.01
2022-08-22T15:32:49.389Z,100235.61
2022-08-22T15:35:32.189Z,100245.63
2022-08-22T15:38:03.982Z,100243.01
2022-08-22T15:40:40.863Z,100240.59
2022-08-22T15:43:33.793Z,100237.13
2022-08-22T15:46:21.940Z,100233.48
2022-08-22T15:49:06.529Z,100234.05
2022-08-22T15:52:02.018Z,100233.64
2022-08-22T15:54:57.041Z,100230.77
2022-08-22T15:57:35.795Z,100230.87
2022-08-22T16:00:27.982Z,100227.50
2022-08-22T16:03:14.977Z,100226.13
2022-08-22T16:05:55.446Z,100224.41
2022-08-22T16:08:46.787Z,100233.70
2022-08-22T16:11:33.495Z,100232.67
2022-08-22T16:14:19.016Z,100232.89
2022-08-22T16:16:57.810Z,100234.60
2022-08-22T16:19:29.507Z,100222.63
2022-08-22T16:21:59.604Z,100236.27
2022-08-22T16:24:30.652Z,100240.62
2022-08-22T16:27:19.345Z,100246.50
2022-08-22T16:29:47.512Z,100241.66
2022-08-22T16:32:26.548Z,100244.29
2022-08-22T16:34:54.871Z,100241.55
2022-08-22T16:37:46.706Z,100239.41
2022-08-22T16:40:25.986Z,100241.73
2022-08-22T16:43:13.821Z,100243.95
2022-08-22T16:45:48.765Z,100246.62
2022-08-22T16:48:37.649Z,100246.99
2022-08-22T16:51:21.537Z,100236.42
2022-08-22T16:54:06.540Z,100250.20
2022-08-22T16:57:00.802Z,100250.09
2022-08-22T16:59:38.498Z,100254.98
2022-08-22T17:02:18.660Z,100253.75
2022-08-22T17:05:30.404Z,100256.55
2022-08-22T17:08:25.900Z,100266.34
2022-08-22T17:11:20.783Z,100267.98
2022-08-22T17:13:54.811Z,100280.09
2022-08-22T17:16:47.284Z,100285.73
2022-08-22T17:19:24.786Z,100290.03
2022-08-22T17:22:07.182Z,100293.96
2022-08-22T17:24:47.174Z,100290.54
2022-08-22T17:27:30.357Z,100294.44
2022-08-22T17:30:16.224Z,100297.33
2022-08-22T17:33:27.940Z,100307.63
2022-08-22T17:36:28.288Z,100304.52
2022-08-22T17:39:04.010Z,100303.97
2022-08-22T17:41:56.003Z,100306.55
2022-08-22T17:44:47.615Z,100308.52
2022-08-22T17:47:24.098Z,100311.55
2022-08-22T17:50:03.137Z,100309.26
2022-08-22T17:52:38.188Z,100308.44
2022-08-22T17:55:18.203Z,100314.75
2022-08-22T17:57:52.136Z,100315.41
2022-08-22T18:00:31.543Z,100318.52
2022-08-22T18:03:19.434Z,100325.60
2022-08-22T18:06:13.408Z,100327.08
2022-08-22T18:11:51.190Z,100335.21
2022-08-22T18:14:35.708Z,100338.85
2022-08-22T18:17:19.370Z,100346.22
2022-08-22T18:20:17.298Z,100344.16
2022-08-22T18:23:01.073Z,100344.25
2022-08-22T18:25:39.809Z,100338.89
2022-08-22T18:28:36.082Z,100341.31
2022-08-22T18:31:08.668Z,100346.88
2022-08-22T18:33:45.851Z,100345.57
2022-08-22T18:36:17.481Z,100344.70
2022-08-22T18:39:08.543Z,100346.69
2022-08-22T18:41:45.715Z,100333.80
2022-08-22T18:44:22.526Z,100336.30
2022-08-22T18:46:55.719Z,100348.10
2022-08-22T18:49:23.628Z,100351.23
2022-08-22T18:52:09.675Z,100353.64
2022-08-22T18:54:49.663Z,100353.42
2022-08-22T18:57:40.295Z,100354.93
2022-08-22T19:00:21.676Z,100351.95
2022-08-22T19:03:21.016Z,100348.52
2022-08-22T19:06:07.771Z,100350.05
2022-08-22T19:08:57.752Z,100346.14
2022-08-22T19:12:13.154Z,100340.36
2022-08-22T19:15:07.974Z,100342.09
2022-08-22T19:17:58.977Z,100345.78
2022-08-22T19:20:52.610Z,100348.58
2022-08-22T19:23:32.888Z,100344.64
2022-08-22T19:26:26.106Z,100339.86
2022-08-22T19:28:58.374Z,100342.58
2022-08-22T19:31:35.487Z,100339.28
2022-08-22T19:34:20.022Z,100339.34
2022-08-22T19:37:31.762Z,100335.70
2022-08-22T19:40:05.946Z,100337.80
2022-08-22T19:42:37.534Z,100335.74
2022-08-22T19:45:20.427Z,100340.33
2022-08-22T19:48:13.243Z,100343.33
2022-08-22T19:50:43.366Z,100346.00
2022-08-22T19:53:47.731Z,100344.80
2022-08-22T19:56:43.604Z,100347.88
2022-08-22T19:59:36.807Z,100344.64
2022-08-22T20:02:35.281Z,100349.03
2022-08-22T20:05:19.833Z,100346.41
2022-08-22T20:07:59.007Z,100346.49
2022-08-22T20:10:35.736Z,100346.21
2022-08-22T20:13:08.850Z,100348.69
2022-08-22T20:16:05.549Z,100344.14
2022-08-22T20:19:07.255Z,100346.32
2022-08-22T20:21:55.345Z,100351.05
2022-08-22T20:24:49.219Z,100350.98
2022-08-22T20:27:22.898Z,100350.20
2022-08-22T20:30:16.713Z,100351.34
2022-08-22T20:32:49.933Z,100327.75
2022-08-22T20:35:27.746Z,100349.77
2022-08-22T20:38:13.234Z,100348.17
2022-08-22T20:40:59.427Z,100344.31
2022-08-22T20:43:42.791Z,100345.27
2022-08-22T20:46:53.366Z,100334.60
2022-08-22T20:49:30.591Z,100349.06
2022-08-22T20:52:12.013Z,100345.89
2022-08-22T20:54:41.252Z,100349.10
2022-08-22T20:57:20.223Z,100345.49
2022-08-22T20:59:59.034Z,100345.77
2022-08-22T21:02:38.218Z,100340.13
2022-08-22T21:05:08.824Z,100342.71
2022-08-22T21:07:41.043Z,100343.60
2022-08-22T21:10:49.611Z,100343.20
2022-08-22T21:13:29.523Z,100342.93
2022-08-22T21:16:11.788Z,100347.55
2022-08-22T21:18:43.414Z,100341.48
2022-08-22T21:21:28.610Z,100343.73
2022-08-22T21:24:02.512Z,100334.62
2022-08-22T21:26:46.640Z,100325.04
2022-08-22T21:29:14.459Z,100323.27
2022-08-22T21:31:59.274Z,100324.45
2022-08-22T21:34:40.961Z,100321.98
2022-08-22T21:37:24.616Z,100329.38
2022-08-22T21:40:15.235Z,100326.13
2022-08-22T21:42:57.687Z,100319.13
2022-08-22T21:45:33.499Z,100318.31
2022-08-22T21:48:02.246Z,100323.16
2022-08-22T21:50:38.516Z,100330.33
2022-08-22T21:53:28.058Z,100332.14
2022-08-22T21:56:16.565Z,100336.35
2022-08-22T21:58:46.503Z,100329.85
2022-08-22T22:01:32.962Z,100332.06
2022-08-22T22:04:01.282Z,100331.83
2022-08-22T22:06:29.163Z,100330.30
2022-08-22T22:08:57.088Z,100327.77
2022-08-22T22:11:25.363Z,100322.15
2022-08-22T22:13:53.997Z,100321.11
2022-08-22T22:16:26.216Z,100326.36
2022-08-22T22:18:54.659Z,100329.42
2022-08-22T22:21:23.715Z,100327.63
2022-08-22T22:23:52.519Z,100325.67
2022-08-22T22:26:21.778Z,100316.28
2022-08-22T22:28:50.462Z,100310.06
2022-08-22T22:31:18.688Z,100310.36
2022-08-22T22:33:46.863Z,100304.66
2022-08-22T22:36:24.203Z,100299.98
2022-08-22T22:38:53.154Z,100302.48
2022-08-22T22:41:25.602Z,100303.70
2022-08-22T22:43:55.158Z,100296.32
2022-08-22T22:46:24.667Z,100293.98
2022-08-22T22:48:53.259Z,100288.89
2022-08-22T22:51:21.842Z,100293.80
2022-08-22T22:53:50.615Z,100295.10
2022-08-22T22:56:22.402Z,100292.83
2022-08-22T23:21:30.269Z,100300.05
2022-08-22T23:24:00.120Z,100306.19
2022-08-22T23:26:28.912Z,100302.54
2022-08-22T23:28:57.448Z,100303.21
2022-08-22T23:31:29.848Z,100297.52
2022-08-22T23:34:04.841Z,100297.73
2022-08-22T23:36:34.129Z,100293.88
2022-08-22T23:39:03.408Z,100296.34
2022-08-22T23:41:31.794Z,100295.05
2022-08-22T23:44:00.064Z,100296.29
2022-08-22T23:46:28.183Z,100297.77
2022-08-22T23:48:59.942Z,100293.14
2022-08-22T23:51:28.690Z,100294.52
2022-08-22T23:53:58.315Z,100298.91
2022-08-22T23:56:32.830Z,100305.53
2022-08-22T23:59:05.621Z,100311.41
